Orbital elements of ORBCOMM FM10
| Launched | 22 December 1997 |
| Flight ended | – |
| Launch site | Eastern Range Airspace |
| Owner | ORBCOMM |
| NORAD ID | 25113 |
| Alternative names |
SLOT A6 |
| Date fetched |
Epoch osculation |
Inc. [°] |
Ecc. | RA asc node [hr] |
Arg Peri. [°] |
Mean anom [°] |
Mean motion [rev/day] |
Abs. mag |
| Date fetched |
Epoch osculation |
Inc. [°] |
Ecc. | RA asc node [hr] |
Arg Peri. [°] |
Mean anom [°] |
Mean motion [rev/day] |
Abs. mag |
| 2026 May 01 17:56 | 2026 Apr 30 12:10:44 | 45.0153 | 0.00036 | 19.0659 | 33.2099 | 326.8981 | 14.46859 | 8.743 |
| 2026 Apr 30 17:56 | 2026 Apr 30 12:10:44 | 45.0153 | 0.00036 | 19.0659 | 33.2099 | 326.8981 | 14.46859 | 8.743 |
| 2026 Apr 29 17:57 | 2026 Apr 22 20:14:03 | 45.0159 | 0.00044 | 21.5228 | 352.1905 | 326.8981 | 14.46859 | 8.743 |
| 2026 Apr 28 17:56 | 2026 Apr 22 20:14:03 | 45.0159 | 0.00044 | 21.5228 | 352.1905 | 326.8981 | 14.46859 | 8.743 |
| 2026 Apr 27 17:58 | 2026 Apr 22 20:14:03 | 45.0159 | 0.00044 | 21.5228 | 352.1905 | 326.8981 | 14.46859 | 8.743 |
| 2026 Apr 26 17:58 | 2026 Apr 22 20:14:03 | 45.0159 | 0.00044 | 21.5228 | 352.1905 | 326.8981 | 14.46859 | 8.743 |
| 2026 Apr 25 17:58 | 2026 Apr 22 20:14:03 | 45.0159 | 0.00044 | 21.5228 | 352.1905 | 326.8981 | 14.46859 | 8.743 |
| 2026 Apr 24 17:59 | 2026 Apr 22 20:14:03 | 45.0159 | 0.00044 | 21.5228 | 352.1905 | 326.8981 | 14.46859 | 8.743 |
| 2026 Apr 23 17:57 | 2026 Apr 19 01:05:22 | 45.0164 | 0.00048 | 22.7402 | 333.9254 | 326.8981 | 14.46859 | 8.743 |
| 2026 Apr 22 17:57 | 2026 Apr 19 01:05:22 | 45.0164 | 0.00048 | 22.7402 | 333.9254 | 326.8981 | 14.46859 | 8.743 |
| 2026 Apr 21 17:57 | 2026 Apr 19 01:05:22 | 45.0164 | 0.00048 | 22.7402 | 333.9254 | 326.8981 | 14.46859 | 8.743 |
| 2026 Apr 20 17:57 | 2026 Apr 19 01:05:22 | 45.0164 | 0.00048 | 22.7402 | 333.9254 | 326.8981 | 14.46859 | 8.743 |
| 2026 Apr 19 17:58 | 2026 Apr 19 01:05:22 | 45.0164 | 0.00048 | 22.7402 | 333.9254 | 326.8981 | 14.46859 | 8.743 |
| 2026 Apr 18 17:56 | 2026 Apr 14 00:06:54 | 45.0167 | 0.00052 | 0.3559 | 310.9556 | 326.8981 | 14.46859 | 8.743 |
| 2026 Apr 16 17:57 | 2026 Apr 14 00:06:54 | 45.0167 | 0.00052 | 0.3559 | 310.9556 | 326.8981 | 14.46859 | 8.743 |
| 2026 Apr 14 17:57 | 2026 Apr 14 00:06:54 | 45.0167 | 0.00052 | 0.3559 | 310.9556 | 326.8981 | 14.46859 | 8.743 |
| 2026 Apr 13 17:57 | 2026 Apr 13 02:34:17 | 45.0167 | 0.00053 | 0.6436 | 306.9909 | 326.8981 | 14.46859 | 8.743 |
| 2026 Apr 12 17:57 | 2026 Apr 12 11:39:24 | 45.0168 | 0.00054 | 0.8428 | 304.2136 | 326.8981 | 14.46859 | 8.743 |
| 2026 Apr 11 17:57 | 2026 Apr 11 10:47:56 | 45.0168 | 0.00054 | 1.1748 | 299.6762 | 326.8981 | 14.46859 | 8.743 |
| 2026 Apr 10 17:58 | 2026 Apr 10 04:58:10 | 45.0167 | 0.00055 | 1.5732 | 294.4319 | 326.8981 | 14.46859 | 8.743 |
| 2026 Apr 09 18:01 | 2026 Apr 09 04:06:41 | 45.0158 | 0.00056 | 1.9052 | 289.5097 | 326.8981 | 14.46859 | 8.743 |
| 2026 Apr 08 17:57 | 2026 Apr 08 04:54:38 | 45.0157 | 0.00056 | 2.2150 | 285.3908 | 326.8981 | 14.46859 | 8.743 |
| 2026 Apr 07 17:57 | 2026 Apr 07 05:42:35 | 45.0156 | 0.00057 | 2.5249 | 281.4694 | 326.8981 | 14.46859 | 8.743 |
| 2026 Apr 06 17:57 | 2026 Apr 06 06:30:32 | 45.0156 | 0.00057 | 2.8347 | 277.2828 | 326.8981 | 14.46859 | 8.743 |
| 2026 Apr 05 17:56 | 2026 Apr 05 05:39:02 | 45.0153 | 0.00057 | 3.1667 | 272.9996 | 326.8981 | 14.46859 | 8.743 |
| 2026 Apr 04 17:57 | 2026 Apr 04 06:26:59 | 45.0151 | 0.00057 | 3.4766 | 268.8660 | 326.8981 | 14.46859 | 8.743 |